Terminal Aerodrome Forecast
Issued by NWS

Home | Current Version | Previous Version | Graphics & Text | Print | Product List | Glossary On
Versions: 1 2 3 4 5 6 7 8 9 10 11 12 13 14 15 16 17
000
FTUS42 KMHX 280331 AAB
TAFPGV
TAF AMD
KPGV 280331Z 2804/2824 23008KT P6SM BKN007
     FM280401 23005KT P6SM SCT015 SCT040
     FM281100 29007KT P6SM SCT250
     FM281700 28007KT P6SM SCT040
      AMD LTD TO CLD VIS AND WIND=

USA.gov is the U.S. government's official web portal to all federal, state and local government web resources and services.